createdAt,value
2018-02-20T00:00:12.762Z,22.4
2018-02-20T00:02:05.564Z,22.5
2018-02-20T00:04:04.847Z,22.5
2018-02-20T00:06:05.413Z,22.5
2018-02-20T00:08:05.513Z,22.5
2018-02-20T00:10:04.835Z,22.5
2018-02-20T00:12:05.646Z,22.5
2018-02-20T00:14:04.943Z,22.5
2018-02-20T00:16:04.723Z,22.5
2018-02-20T00:18:05.803Z,22.4
2018-02-20T00:20:05.564Z,22.4
2018-02-20T00:22:05.376Z,22.4
2018-02-20T00:24:04.786Z,22.4
2018-02-20T00:26:04.646Z,22.4
2018-02-20T00:28:05.366Z,22.4
2018-02-20T00:30:05.394Z,22.4
2018-02-20T00:32:05.159Z,22.4
2018-02-20T00:34:05.613Z,22.4
2018-02-20T00:36:05.574Z,22.4
2018-02-20T00:38:07.904Z,22.4
2018-02-20T00:40:04.894Z,22.4
2018-02-20T00:42:04.672Z,22.4
2018-02-20T00:44:04.657Z,22.4
2018-02-20T00:46:05.420Z,22.4
2018-02-20T00:48:05.243Z,22.4
2018-02-20T00:50:04.993Z,22.4
2018-02-20T00:52:05.315Z,22.4
2018-02-20T00:54:04.831Z,22.4
2018-02-20T00:56:05.852Z,22.4
2018-02-20T00:58:05.854Z,22.4
2018-02-20T01:00:05.605Z,22.4
2018-02-20T01:02:05.412Z,22.4
2018-02-20T01:04:05.174Z,22.4
2018-02-20T01:06:04.934Z,22.4
2018-02-20T01:08:05.416Z,22.4
2018-02-20T01:10:04.707Z,22.4
2018-02-20T01:12:05.465Z,22.4
2018-02-20T01:14:07.743Z,22.4
2018-02-20T01:16:08.011Z,22.4
2018-02-20T01:18:05.279Z,22.4
2018-02-20T01:20:05.156Z,22.4
2018-02-20T01:22:10.516Z,22.3
2018-02-20T01:24:05.330Z,22.3
2018-02-20T01:26:05.124Z,22.4
2018-02-20T01:28:05.006Z,22.4
2018-02-20T01:30:04.839Z,22.4
2018-02-20T01:32:05.153Z,22.4
2018-02-20T01:34:04.899Z,22.3
2018-02-20T01:36:04.928Z,22.4
2018-02-20T01:38:04.776Z,22.3
2018-02-20T01:40:05.065Z,22.4
2018-02-20T01:42:04.825Z,22.3
2018-02-20T01:44:05.561Z,22.3
2018-02-20T01:46:04.940Z,22.4
2018-02-20T01:48:04.839Z,22.3
2018-02-20T01:50:04.671Z,22.3
2018-02-20T01:52:07.989Z,22.3
2018-02-20T01:54:12.642Z,22.3
2018-02-20T01:56:05.402Z,22.3
2018-02-20T01:58:05.259Z,22.3
2018-02-20T02:00:07.756Z,22.3
2018-02-20T02:02:08.035Z,22.3
2018-02-20T02:04:09.850Z,22.3
2018-02-20T02:06:04.766Z,22.3
2018-02-20T02:08:05.556Z,22.3
2018-02-20T02:10:05.333Z,22.3
2018-02-20T02:12:05.123Z,22.3
2018-02-20T02:14:04.868Z,22.3
2018-02-20T02:16:08.175Z,22.3
2018-02-20T02:18:05.170Z,22.3
2018-02-20T02:20:04.966Z,22.3
2018-02-20T02:22:04.821Z,22.3
2018-02-20T02:24:05.562Z,22.3
2018-02-20T02:26:05.294Z,22.3
2018-02-20T02:28:05.579Z,22.3
2018-02-20T02:30:10.661Z,22.3
2018-02-20T02:32:05.413Z,22.3
2018-02-20T02:34:05.257Z,22.3
2018-02-20T02:36:05.378Z,22.3
2018-02-20T02:38:04.665Z,22.3
2018-02-20T02:40:05.441Z,22.3
2018-02-20T02:42:07.431Z,22.3
2018-02-20T02:44:17.916Z,22.3
2018-02-20T02:46:04.749Z,22.3
2018-02-20T02:48:05.592Z,22.3
2018-02-20T02:50:05.406Z,22.3
2018-02-20T02:52:05.319Z,22.3
2018-02-20T02:54:05.117Z,22.3
2018-02-20T02:56:04.988Z,22.3
2018-02-20T02:58:07.313Z,22.3
2018-02-20T03:00:05.091Z,22.3
2018-02-20T03:02:04.857Z,22.3
2018-02-20T03:04:05.659Z,22.3
2018-02-20T03:06:07.516Z,22.3
2018-02-20T03:08:05.342Z,22.3
2018-02-20T03:10:05.140Z,22.3
2018-02-20T03:12:05.188Z,22.3
2018-02-20T03:14:04.975Z,22.3
2018-02-20T03:16:05.294Z,22.3
2018-02-20T03:18:05.274Z,22.2
2018-02-20T03:20:07.564Z,22.3
2018-02-20T03:22:05.366Z,22.2
2018-02-20T03:24:10.198Z,22.2
2018-02-20T03:26:07.982Z,22.2
2018-02-20T03:28:04.773Z,22.2
2018-02-20T03:30:05.556Z,22.3
2018-02-20T03:32:10.357Z,22.2
2018-02-20T03:34:04.621Z,22.2
2018-02-20T03:36:05.496Z,22.2
2018-02-20T03:38:05.288Z,22.2
2018-02-20T03:40:08.090Z,22.2
2018-02-20T03:42:04.848Z,22.2
2018-02-20T03:44:08.217Z,22.2
2018-02-20T03:46:05.016Z,22.2
2018-02-20T03:48:04.827Z,22.2
2018-02-20T03:50:05.601Z,22.2
2018-02-20T03:52:04.883Z,22.2
2018-02-20T03:54:05.650Z,22.2
2018-02-20T03:56:07.991Z,22.2
2018-02-20T03:58:04.770Z,22.2
2018-02-20T04:00:07.856Z,22.2
2018-02-20T04:02:05.644Z,22.2
2018-02-20T04:04:05.445Z,22.2
2018-02-20T04:06:05.248Z,22.2
2018-02-20T04:08:07.519Z,22.2
2018-02-20T04:10:05.437Z,22.2
2018-02-20T04:12:07.266Z,22.2
2018-02-20T04:14:04.675Z,22.2
2018-02-20T04:16:05.453Z,22.2
2018-02-20T04:18:05.424Z,22.2
2018-02-20T04:20:05.177Z,22.2
2018-02-20T04:22:05.542Z,22.2
2018-02-20T04:24:05.303Z,22.2
2018-02-20T04:26:07.189Z,22.2
2018-02-20T04:28:05.593Z,22.2
2018-02-20T04:30:08.107Z,22.2
2018-02-20T04:32:04.857Z,22.2
2018-02-20T04:34:04.639Z,22.2
2018-02-20T04:36:05.466Z,22.2
2018-02-20T04:38:05.310Z,22.2
2018-02-20T04:40:05.134Z,22.2
2018-02-20T04:42:04.965Z,22.2
2018-02-20T04:44:04.754Z,22.2
2018-02-20T04:46:10.606Z,22.2
2018-02-20T04:48:05.440Z,22.2
2018-02-20T04:50:05.325Z,22.2
2018-02-20T04:52:05.060Z,22.2
2018-02-20T04:54:04.815Z,22.2
2018-02-20T04:56:08.108Z,22.2
2018-02-20T04:58:04.865Z,22.2
2018-02-20T05:00:05.192Z,22.2
2018-02-20T05:02:07.507Z,22.2
2018-02-20T05:04:07.801Z,22.2
2018-02-20T05:06:05.162Z,22.2
2018-02-20T05:08:05.014Z,22.3
2018-02-20T05:10:07.281Z,22.2
2018-02-20T05:12:12.648Z,22.3
2018-02-20T05:14:05.501Z,22.3
2018-02-20T05:16:05.269Z,22.3
2018-02-20T05:18:10.310Z,22.3
2018-02-20T05:20:10.199Z,22.3
2018-02-20T05:22:04.978Z,22.3
2018-02-20T05:24:05.074Z,22.3
2018-02-20T05:26:05.341Z,22.3
2018-02-20T05:28:05.085Z,22.3
2018-02-20T05:30:04.858Z,22.3
2018-02-20T05:32:05.661Z,22.3
2018-02-20T05:34:07.952Z,22.3
2018-02-20T05:36:04.819Z,22.3
2018-02-20T05:38:05.623Z,22.4
2018-02-20T05:40:05.263Z,22.3
2018-02-20T05:42:05.141Z,22.4
2018-02-20T05:44:04.905Z,22.4
2018-02-20T05:46:04.690Z,22.4
2018-02-20T05:48:05.504Z,22.4
2018-02-20T05:50:05.391Z,22.4
2018-02-20T05:52:07.338Z,22.4
2018-02-20T05:54:08.502Z,22.4
2018-02-20T05:56:05.182Z,22.4
2018-02-20T05:58:07.627Z,22.5
2018-02-20T06:00:05.805Z,22.5
2018-02-20T06:02:05.614Z,22.5
2018-02-20T06:04:05.456Z,22.5
2018-02-20T06:06:05.246Z,22.5
2018-02-20T06:08:05.008Z,22.5
2018-02-20T06:10:05.408Z,22.5
2018-02-20T06:12:05.175Z,22.5
2018-02-20T06:14:04.949Z,22.5
2018-02-20T06:16:04.847Z,22.5
2018-02-20T06:18:04.830Z,22.5
2018-02-20T06:20:05.593Z,22.5
2018-02-20T06:22:05.435Z,22.5
2018-02-20T06:24:05.266Z,22.5
2018-02-20T06:26:05.050Z,22.5
2018-02-20T06:28:04.802Z,22.5
2018-02-20T06:30:05.554Z,22.5
2018-02-20T06:32:05.398Z,22.6
2018-02-20T06:34:05.146Z,22.6
2018-02-20T06:36:04.918Z,22.5
2018-02-20T06:38:04.659Z,22.5
2018-02-20T06:40:07.519Z,22.4
2018-02-20T06:42:05.321Z,22.5
2018-02-20T06:44:05.600Z,22.5
2018-02-20T06:46:05.399Z,22.5
2018-02-20T06:48:05.193Z,22.5
2018-02-20T06:50:04.965Z,22.5
2018-02-20T06:52:04.723Z,22.5
2018-02-20T06:54:05.533Z,22.5
2018-02-20T06:56:05.331Z,22.5
2018-02-20T06:58:05.192Z,22.5
2018-02-20T07:00:04.989Z,22.5
2018-02-20T07:02:07.879Z,22.5
2018-02-20T07:04:04.639Z,22.5
2018-02-20T07:06:05.023Z,22.5
2018-02-20T07:08:07.351Z,22.5
2018-02-20T07:10:07.786Z,22.5
2018-02-20T07:12:05.665Z,22.5
2018-02-20T07:14:05.910Z,22.5
2018-02-20T07:16:04.739Z,22.6
2018-02-20T07:18:04.705Z,22.6
2018-02-20T07:20:05.557Z,22.6
2018-02-20T07:22:05.537Z,22.6
2018-02-20T07:24:05.585Z,22.6
2018-02-20T07:26:05.432Z,22.6
2018-02-20T07:28:07.790Z,22.6
2018-02-20T07:30:05.632Z,22.6
2018-02-20T07:32:05.384Z,22.7
2018-02-20T07:34:07.733Z,22.7
2018-02-20T07:36:05.492Z,22.7
2018-02-20T07:38:05.198Z,22.7
2018-02-20T07:40:04.963Z,22.7
2018-02-20T07:42:04.729Z,22.7
2018-02-20T07:44:08.035Z,22.8
2018-02-20T07:46:04.873Z,22.8
2018-02-20T07:48:05.643Z,22.8
2018-02-20T07:50:05.022Z,22.8
2018-02-20T07:52:04.872Z,22.8
2018-02-20T07:54:07.200Z,22.8
2018-02-20T07:56:04.920Z,22.8
2018-02-20T07:58:29.010Z,22.9
2018-02-20T08:00:20.281Z,22.9
2018-02-20T08:02:05.215Z,22.9
2018-02-20T08:04:05.061Z,22.9
2018-02-20T08:06:04.838Z,22.9
2018-02-20T08:08:05.559Z,22.9
2018-02-20T08:10:05.338Z,22.9
2018-02-20T08:12:05.156Z,23
2018-02-20T08:14:04.964Z,23
2018-02-20T08:16:04.760Z,23
2018-02-20T08:18:07.239Z,22.9
2018-02-20T08:20:05.048Z,22.9
2018-02-20T08:22:04.895Z,22.9
2018-02-20T08:24:04.657Z,22.9
2018-02-20T08:26:05.478Z,22.9
2018-02-20T08:28:05.228Z,22.9
2018-02-20T08:30:05.544Z,22.8
2018-02-20T08:32:05.303Z,22.8
2018-02-20T08:34:05.155Z,22.8
2018-02-20T08:36:04.989Z,22.7
2018-02-20T08:38:07.279Z,22.7
2018-02-20T08:40:05.023Z,22.7
2018-02-20T08:42:04.784Z,22.7
2018-02-20T08:44:05.579Z,22.7
2018-02-20T08:46:05.349Z,22.7
2018-02-20T08:48:05.343Z,22.7
2018-02-20T08:50:10.296Z,22.6
2018-02-20T08:52:05.142Z,22.6
2018-02-20T08:54:04.979Z,22.7
2018-02-20T08:56:04.749Z,22.6
2018-02-20T08:58:05.550Z,22.7
2018-02-20T09:00:08.087Z,22.7
2018-02-20T09:02:05.703Z,22.7
2018-02-20T09:04:04.953Z,22.7
2018-02-20T09:06:07.647Z,22.7
2018-02-20T09:08:04.911Z,22.7
2018-02-20T09:10:04.696Z,22.7
2018-02-20T09:12:04.973Z,22.7
2018-02-20T09:14:04.798Z,22.7
2018-02-20T09:16:05.239Z,22.7
2018-02-20T09:18:05.288Z,22.7
2018-02-20T09:20:07.598Z,22.8
2018-02-20T09:22:07.929Z,22.9
2018-02-20T09:24:04.689Z,22.9
2018-02-20T09:26:05.403Z,22.9
2018-02-20T09:28:07.711Z,22.9
2018-02-20T09:30:08.088Z,22.9
2018-02-20T09:32:05.154Z,22.9
2018-02-20T09:34:07.952Z,22.9
2018-02-20T09:36:04.698Z,22.9
2018-02-20T09:38:05.467Z,23
2018-02-20T09:40:08.026Z,23
2018-02-20T09:42:04.740Z,23
2018-02-20T09:44:05.490Z,22.9
2018-02-20T09:46:07.389Z,23
2018-02-20T09:48:05.153Z,22.9
2018-02-20T09:50:07.457Z,23
2018-02-20T09:52:04.920Z,22.9
2018-02-20T09:54:04.827Z,23
2018-02-20T09:56:07.698Z,22.9
2018-02-20T09:58:05.522Z,22.9
2018-02-20T10:00:05.361Z,23
2018-02-20T10:02:07.693Z,23
2018-02-20T10:04:10.532Z,23
2018-02-20T10:06:10.160Z,23
2018-02-20T10:08:05.011Z,23
2018-02-20T10:10:04.777Z,22.9
2018-02-20T10:12:05.561Z,23
2018-02-20T10:14:05.306Z,22.9
2018-02-20T10:16:05.105Z,22.9
2018-02-20T10:18:05.115Z,22.9
2018-02-20T10:20:09.965Z,22.9
2018-02-20T10:22:04.739Z,22.9
2018-02-20T10:24:05.515Z,22.9
2018-02-20T10:26:05.248Z,22.9
2018-02-20T10:28:08.032Z,22.9
2018-02-20T10:30:04.807Z,22.9
2018-02-20T10:32:06.610Z,22.9
2018-02-20T10:34:05.632Z,22.9
2018-02-20T10:36:07.640Z,22.9
2018-02-20T10:38:07.452Z,22.9
2018-02-20T10:40:05.171Z,22.9
2018-02-20T10:42:04.978Z,22.9
2018-02-20T10:44:05.109Z,23
2018-02-20T10:46:04.944Z,22.9
2018-02-20T10:48:04.763Z,22.9
2018-02-20T10:50:13.081Z,22.9
2018-02-20T10:52:05.399Z,22.9
2018-02-20T10:54:05.161Z,22.9
2018-02-20T10:56:08.113Z,22.9
2018-02-20T10:58:04.895Z,22.9
2018-02-20T11:00:04.691Z,22.9
2018-02-20T11:02:05.030Z,22.9
2018-02-20T11:04:04.794Z,22.9
2018-02-20T11:06:07.741Z,22.9
2018-02-20T11:08:08.034Z,22.9
2018-02-20T11:10:04.750Z,22.9
2018-02-20T11:12:05.588Z,22.9
2018-02-20T11:14:05.419Z,22.9
2018-02-20T11:16:10.244Z,22.8
2018-02-20T11:18:05.220Z,22.8
2018-02-20T11:20:07.542Z,22.8
2018-02-20T11:22:05.276Z,22.8
2018-02-20T11:24:05.042Z,22.8
2018-02-20T11:26:07.328Z,22.8
2018-02-20T11:28:05.135Z,22.8
2018-02-20T11:30:04.932Z,22.8
2018-02-20T11:32:04.753Z,22.8
2018-02-20T11:34:05.080Z,22.8
2018-02-20T11:36:04.878Z,22.7
2018-02-20T11:38:09.710Z,22.7
2018-02-20T11:40:05.503Z,22.7
2018-02-20T11:42:05.358Z,22.7
2018-02-20T11:44:05.199Z,22.7
2018-02-20T11:46:04.962Z,22.7
2018-02-20T11:48:04.755Z,22.7
2018-02-20T11:50:05.490Z,22.7
2018-02-20T11:52:07.779Z,22.7
2018-02-20T11:54:05.294Z,22.7
2018-02-20T11:56:05.608Z,22.6
2018-02-20T11:58:05.371Z,22.7
2018-02-20T12:00:07.939Z,22.6
2018-02-20T12:02:04.714Z,22.6
2018-02-20T12:04:05.460Z,22.6
2018-02-20T12:06:05.265Z,22.6
2018-02-20T12:08:05.002Z,22.6
2018-02-20T12:10:04.917Z,22.7
2018-02-20T12:12:04.806Z,22.6
2018-02-20T12:14:05.605Z,22.6
2018-02-20T12:16:04.931Z,22.6
2018-02-20T12:18:04.995Z,22.6
2018-02-20T12:20:07.362Z,22.7
2018-02-20T12:22:05.256Z,22.6
2018-02-20T12:24:07.657Z,22.6
2018-02-20T12:26:05.514Z,22.6
2018-02-20T12:28:05.257Z,22.6
2018-02-20T12:30:15.149Z,22.6
2018-02-20T12:32:04.918Z,22.6
2018-02-20T12:34:07.583Z,22.6
2018-02-20T12:36:05.425Z,22.6
2018-02-20T12:38:05.204Z,22.6
2018-02-20T12:40:05.015Z,22.6
2018-02-20T12:42:04.789Z,22.6
2018-02-20T12:44:05.565Z,22.6
2018-02-20T12:46:05.344Z,22.6
2018-02-20T12:48:05.619Z,22.6
2018-02-20T12:50:05.408Z,22.6
2018-02-20T12:52:05.174Z,22.6
2018-02-20T12:54:04.956Z,22.6
2018-02-20T12:56:07.221Z,22.6
2018-02-20T12:58:04.976Z,22.6
2018-02-20T13:00:04.776Z,22.6
2018-02-20T13:02:05.558Z,22.6
2018-02-20T13:04:05.423Z,22.6
2018-02-20T13:06:04.825Z,22.6
2018-02-20T13:08:07.190Z,22.6
2018-02-20T13:10:04.950Z,22.6
2018-02-20T13:12:07.253Z,22.6
2018-02-20T13:14:05.108Z,22.7
2018-02-20T13:16:04.908Z,22.7
2018-02-20T13:18:07.441Z,22.7
2018-02-20T13:20:10.353Z,22.7
2018-02-20T13:22:05.650Z,22.7
2018-02-20T13:24:07.947Z,22.7
2018-02-20T13:26:07.332Z,22.7
2018-02-20T13:28:07.628Z,22.7
2018-02-20T13:30:05.840Z,22.7
2018-02-20T13:32:05.607Z,22.7
2018-02-20T13:34:05.457Z,22.7
2018-02-20T13:36:05.224Z,22.7
2018-02-20T13:38:05.014Z,22.8
2018-02-20T13:40:05.280Z,22.7
2018-02-20T13:42:07.619Z,22.8
2018-02-20T13:44:04.897Z,22.8
2018-02-20T13:46:05.136Z,22.8
2018-02-20T13:48:07.437Z,22.8
2018-02-20T13:50:05.203Z,22.8
2018-02-20T13:52:07.614Z,22.8
2018-02-20T13:54:05.426Z,22.8
2018-02-20T13:56:05.276Z,22.8
2018-02-20T13:58:07.309Z,22.8
2018-02-20T14:00:05.103Z,22.8
2018-02-20T14:02:05.133Z,22.8
2018-02-20T14:04:05.008Z,22.8
2018-02-20T14:06:04.780Z,22.8
2018-02-20T14:08:05.495Z,22.8
2018-02-20T14:10:05.590Z,22.8
2018-02-20T14:12:05.357Z,22.8
2018-02-20T14:14:05.096Z,22.8
2018-02-20T14:16:05.394Z,22.8
2018-02-20T14:18:04.923Z,22.8
2018-02-20T14:20:04.674Z,22.8
2018-02-20T14:22:05.415Z,22.8
2018-02-20T14:24:05.480Z,22.7
2018-02-20T14:26:08.111Z,22.7
2018-02-20T14:28:04.874Z,22.7
2018-02-20T14:30:04.711Z,22.7
2018-02-20T14:32:05.478Z,22.7
2018-02-20T14:34:04.735Z,22.7
2018-02-20T14:36:10.857Z,22.7
2018-02-20T14:38:05.173Z,22.7
2018-02-20T14:40:04.939Z,22.7
2018-02-20T14:42:07.371Z,22.7
2018-02-20T14:44:10.261Z,22.7
2018-02-20T14:46:05.134Z,22.7
2018-02-20T14:48:04.897Z,22.7
2018-02-20T14:50:07.190Z,22.7
2018-02-20T14:52:04.964Z,22.7
2018-02-20T14:54:04.759Z,22.7
2018-02-20T14:56:08.101Z,22.7
2018-02-20T14:58:04.983Z,22.6
2018-02-20T15:00:04.779Z,22.6
2018-02-20T15:02:05.533Z,22.6
2018-02-20T15:04:05.382Z,22.6
2018-02-20T15:06:05.400Z,22.6
2018-02-20T15:08:05.122Z,22.6
2018-02-20T15:10:07.955Z,22.6
2018-02-20T15:12:07.540Z,22.6
2018-02-20T15:14:07.814Z,22.6
2018-02-20T15:16:05.820Z,22.6
2018-02-20T15:18:04.812Z,22.6
2018-02-20T15:20:05.574Z,22.6
2018-02-20T15:22:07.861Z,22.6
2018-02-20T15:24:08.302Z,22.6
2018-02-20T15:26:04.642Z,22.6
2018-02-20T15:28:05.491Z,22.6
2018-02-20T15:30:04.869Z,22.6
2018-02-20T15:32:05.637Z,22.6
2018-02-20T15:34:05.497Z,22.6
2018-02-20T15:36:05.263Z,22.5
2018-02-20T15:38:05.324Z,22.5
2018-02-20T15:40:05.603Z,22.6
2018-02-20T15:42:05.379Z,22.6
2018-02-20T15:44:04.742Z,22.5
2018-02-20T15:46:05.525Z,22.5
2018-02-20T15:48:04.827Z,22.5
2018-02-20T15:50:05.604Z,22.5
2018-02-20T15:52:05.419Z,22.5
2018-02-20T15:54:05.326Z,22.5
2018-02-20T15:56:04.799Z,22.5
2018-02-20T15:58:05.119Z,22.5
2018-02-20T16:00:07.838Z,22.5
2018-02-20T16:02:10.598Z,22.5
2018-02-20T16:04:04.838Z,22.5
2018-02-20T16:06:05.863Z,22.5
2018-02-20T16:08:11.154Z,22.5
2018-02-20T16:10:05.176Z,22.5
2018-02-20T16:12:07.270Z,22.5
2018-02-20T16:14:04.784Z,22.5
2018-02-20T16:16:06.725Z,22.4
2018-02-20T16:18:10.362Z,22.5
2018-02-20T16:20:05.560Z,22.5
2018-02-20T16:22:04.839Z,22.5
2018-02-20T16:24:05.713Z,22.4
2018-02-20T16:26:05.664Z,22.5
2018-02-20T16:28:04.655Z,22.5
2018-02-20T16:30:04.964Z,22.5
2018-02-20T16:32:04.994Z,22.4
2018-02-20T16:34:22.596Z,22.5
2018-02-20T16:36:05.689Z,22.5
2018-02-20T16:38:05.142Z,22.4
2018-02-20T16:40:07.420Z,22.4
2018-02-20T16:42:05.646Z,22.4
2018-02-20T16:44:09.848Z,22.4
2018-02-20T16:46:06.519Z,22.4
2018-02-20T16:48:05.563Z,22.4
2018-02-20T16:50:05.340Z,22.4
2018-02-20T16:52:05.099Z,22.4
2018-02-20T16:54:07.434Z,22.4
2018-02-20T16:56:05.158Z,22.4
2018-02-20T16:58:04.911Z,22.4
2018-02-20T17:00:05.368Z,22.4
2018-02-20T17:02:05.137Z,22.4
2018-02-20T17:04:05.179Z,22.4
2018-02-20T17:06:05.528Z,22.4
2018-02-20T17:08:05.427Z,22.4
2018-02-20T17:10:05.217Z,22.4
2018-02-20T17:12:14.274Z,22.3
2018-02-20T17:14:04.801Z,22.4
2018-02-20T17:16:04.795Z,22.4
2018-02-20T17:18:05.821Z,22.4
2018-02-20T17:20:05.098Z,22.4
2018-02-20T17:22:05.004Z,22.4
2018-02-20T17:24:11.165Z,22.4
2018-02-20T17:26:07.131Z,22.4
2018-02-20T17:28:05.143Z,22.4
2018-02-20T17:30:04.904Z,22.4
2018-02-20T17:32:05.416Z,22.4
2018-02-20T17:34:05.041Z,22.4
2018-02-20T17:36:04.868Z,22.4
2018-02-20T17:38:05.938Z,22.5
2018-02-20T17:40:04.692Z,22.4
2018-02-20T17:42:05.369Z,22.5
2018-02-20T17:44:10.197Z,22.5
2018-02-20T17:46:04.970Z,22.4
2018-02-20T17:48:05.593Z,22.5
2018-02-20T17:50:10.641Z,22.5
2018-02-20T17:52:09.970Z,22.5
2018-02-20T17:54:05.055Z,22.5
2018-02-20T17:56:10.165Z,22.5
2018-02-20T17:58:05.056Z,22.5
2018-02-20T18:00:07.939Z,22.5
2018-02-20T18:02:06.118Z,22.5
2018-02-20T18:04:05.419Z,22.5
2018-02-20T18:06:04.742Z,22.5
2018-02-20T18:08:05.887Z,22.5
2018-02-20T18:10:04.854Z,22.5
2018-02-20T18:12:09.773Z,22.5
2018-02-20T18:14:27.501Z,22.5
2018-02-20T18:16:05.043Z,22.5
2018-02-20T18:18:07.807Z,22.5
2018-02-20T18:20:05.580Z,22.5
2018-02-20T18:22:10.995Z,22.5
2018-02-20T18:24:13.528Z,22.5
2018-02-20T18:26:04.853Z,22.5
2018-02-20T18:28:08.110Z,22.5
2018-02-20T18:30:07.646Z,22.6
2018-02-20T18:32:05.422Z,22.5
2018-02-20T18:34:10.238Z,22.6
2018-02-20T18:36:05.070Z,22.5
2018-02-20T18:38:05.386Z,22.5
2018-02-20T18:40:05.125Z,22.5
2018-02-20T18:42:15.016Z,22.5
2018-02-20T18:44:08.201Z,22.6
2018-02-20T18:46:14.871Z,22.6
2018-02-20T18:48:08.176Z,22.6
2018-02-20T18:50:05.000Z,22.5
2018-02-20T18:52:04.760Z,22.6
2018-02-20T18:54:05.573Z,22.6
2018-02-20T18:56:05.411Z,22.6
2018-02-20T18:58:05.275Z,22.6
2018-02-20T19:00:05.039Z,22.6
2018-02-20T19:02:05.317Z,22.6
2018-02-20T19:04:04.663Z,22.6
2018-02-20T19:06:05.470Z,22.6
2018-02-20T19:08:10.521Z,22.6
2018-02-20T19:10:10.547Z,22.5
2018-02-20T19:12:10.003Z,22.5
2018-02-20T19:14:05.391Z,22.5
2018-02-20T19:16:07.695Z,22.6
2018-02-20T19:18:07.863Z,22.5
2018-02-20T19:20:06.106Z,22.5
2018-02-20T19:22:07.440Z,22.5
2018-02-20T19:24:05.238Z,22.5
2018-02-20T19:26:05.545Z,22.6
2018-02-20T19:28:05.706Z,22.5
2018-02-20T19:30:05.741Z,22.5
2018-02-20T19:32:05.736Z,22.5
2018-02-20T19:34:05.487Z,22.5
2018-02-20T19:36:05.590Z,22.5
2018-02-20T19:38:05.732Z,22.5
2018-02-20T19:40:05.475Z,22.5
2018-02-20T19:42:05.250Z,22.5
2018-02-20T19:44:05.262Z,22.5
2018-02-20T19:46:05.063Z,22.5
2018-02-20T19:48:07.576Z,22.5
2018-02-20T19:50:04.854Z,22.5
2018-02-20T19:52:04.674Z,22.4
2018-02-20T19:54:04.990Z,22.4
2018-02-20T19:56:04.783Z,22.4
2018-02-20T19:58:05.565Z,22.5
2018-02-20T20:00:10.407Z,22.4
2018-02-20T20:02:05.014Z,22.4
2018-02-20T20:04:07.969Z,22.4
2018-02-20T20:06:04.796Z,22.4
2018-02-20T20:08:04.944Z,22.4
2018-02-20T20:10:04.911Z,22.4
2018-02-20T20:12:04.723Z,22.4
2018-02-20T20:14:05.556Z,22.4
2018-02-20T20:16:05.528Z,22.4
2018-02-20T20:18:05.159Z,22.4
2018-02-20T20:20:05.442Z,22.4
2018-02-20T20:22:04.724Z,22.4
2018-02-20T20:24:05.512Z,22.4
2018-02-20T20:26:05.581Z,22.4
2018-02-20T20:28:05.595Z,22.4
2018-02-20T20:30:05.585Z,22.4
2018-02-20T20:32:05.446Z,22.4
2018-02-20T20:34:07.769Z,22.4
2018-02-20T20:36:05.742Z,22.4
2018-02-20T20:38:05.485Z,22.4
2018-02-20T20:40:05.462Z,22.4
2018-02-20T20:42:05.517Z,22.4
2018-02-20T20:44:05.342Z,22.4
2018-02-20T20:46:07.872Z,22.4
2018-02-20T20:48:04.626Z,22.4
2018-02-20T20:50:05.687Z,22.4
2018-02-20T20:52:05.438Z,22.5
2018-02-20T20:54:05.214Z,22.4
2018-02-20T20:56:06.992Z,22.4
2018-02-20T20:58:05.324Z,22.4
2018-02-20T21:00:05.515Z,22.4
2018-02-20T21:02:05.274Z,22.5
2018-02-20T21:04:05.333Z,22.4
2018-02-20T21:06:05.413Z,22.5
2018-02-20T21:08:05.394Z,22.4
2018-02-20T21:10:05.226Z,22.5
2018-02-20T21:12:05.271Z,22.5
2018-02-20T21:14:05.012Z,22.5
2018-02-20T21:16:04.746Z,22.5
2018-02-20T21:18:04.927Z,22.5
2018-02-20T21:20:04.792Z,22.4
2018-02-20T21:22:05.113Z,22.4
2018-02-20T21:24:05.582Z,22.5
2018-02-20T21:26:07.370Z,22.4
2018-02-20T21:28:05.099Z,22.5
2018-02-20T21:30:04.919Z,22.5
2018-02-20T21:32:04.767Z,22.5
2018-02-20T21:34:09.807Z,22.4
2018-02-20T21:36:05.823Z,22.4
2018-02-20T21:38:05.612Z,22.4
2018-02-20T21:40:05.376Z,22.5
2018-02-20T21:42:05.041Z,22.4
2018-02-20T21:44:04.805Z,22.4
2018-02-20T21:46:05.593Z,22.4
2018-02-20T21:48:10.398Z,22.4
2018-02-20T21:50:05.169Z,22.4
2018-02-20T21:52:04.985Z,22.4
2018-02-20T21:54:04.740Z,22.4
2018-02-20T21:56:05.540Z,22.4
2018-02-20T21:58:04.860Z,22.4
2018-02-20T22:00:05.629Z,22.4
2018-02-20T22:02:05.430Z,22.4
2018-02-20T22:04:05.195Z,22.4
2018-02-20T22:06:05.004Z,22.4
2018-02-20T22:08:04.823Z,22.4
2018-02-20T22:10:05.622Z,22.3
2018-02-20T22:12:05.458Z,22.4
2018-02-20T22:14:05.012Z,22.3
2018-02-20T22:16:07.920Z,22.3
2018-02-20T22:18:04.926Z,22.3
2018-02-20T22:20:04.744Z,22.3
2018-02-20T22:22:05.476Z,22.3
2018-02-20T22:24:05.506Z,22.3
2018-02-20T22:26:07.716Z,22.3
2018-02-20T22:28:08.067Z,22.3
2018-02-20T22:30:05.467Z,22.3
2018-02-20T22:32:04.755Z,22.3
2018-02-20T22:34:05.489Z,22.3
2018-02-20T22:36:04.777Z,22.3
2018-02-20T22:38:05.602Z,22.3
2018-02-20T22:40:05.358Z,22.3
2018-02-20T22:42:04.738Z,22.3
2018-02-20T22:44:05.608Z,22.3
2018-02-20T22:46:07.893Z,22.3
2018-02-20T22:48:04.681Z,22.3
2018-02-20T22:50:08.024Z,22.3
2018-02-20T22:52:05.057Z,22.3
2018-02-20T22:54:05.254Z,22.3
2018-02-20T22:56:13.155Z,22.3
2018-02-20T22:58:05.529Z,22.3
2018-02-20T23:00:05.282Z,22.3
2018-02-20T23:02:05.048Z,22.4
2018-02-20T23:04:04.818Z,22.3
2018-02-20T23:06:05.602Z,22.3
2018-02-20T23:08:05.443Z,22.3
2018-02-20T23:10:05.191Z,22.3
2018-02-20T23:12:07.544Z,22.3
2018-02-20T23:14:09.910Z,22.3
2018-02-20T23:16:07.212Z,22.3
2018-02-20T23:18:05.178Z,22.3
2018-02-20T23:20:05.490Z,22.3
2018-02-20T23:22:07.744Z,22.3
2018-02-20T23:24:08.038Z,22.3
2018-02-20T23:26:07.319Z,22.3
2018-02-20T23:28:05.585Z,22.3
2018-02-20T23:30:04.924Z,22.3
2018-02-20T23:32:04.664Z,22.3
2018-02-20T23:34:05.443Z,22.3
2018-02-20T23:36:05.294Z,22.2
2018-02-20T23:38:07.608Z,22.3
2018-02-20T23:40:07.895Z,22.3
2018-02-20T23:42:10.294Z,22.2
2018-02-20T23:44:05.042Z,22.3
2018-02-20T23:46:04.872Z,22.2
2018-02-20T23:48:04.709Z,22.2
2018-02-20T23:50:08.058Z,22.2
2018-02-20T23:52:05.087Z,22.2
2018-02-20T23:54:04.883Z,22.2
2018-02-20T23:56:07.176Z,22.2
2018-02-20T23:58:04.978Z,22.2
